sensor_id;sensor_type;location;lat;lon;timestamp;pressure;altitude;pressure_sealevel;temperature;humidity
41040;BME280;48586;50.122;18.972;2023-10-09T00:01:00;99495.25;;;3.02;57.17
41040;BME280;48586;50.122;18.972;2023-10-09T00:04:12;99501.66;;;2.98;57.16
41040;BME280;48586;50.122;18.972;2023-10-09T00:07:19;99496.50;;;2.95;57.31
41040;BME280;48586;50.122;18.972;2023-10-09T00:10:27;99511.88;;;2.87;57.40
41040;BME280;48586;50.122;18.972;2023-10-09T00:13:42;99515.06;;;2.76;58.14
41040;BME280;48586;50.122;18.972;2023-10-09T00:17:00;99497.88;;;2.67;58.05
41040;BME280;48586;50.122;18.972;2023-10-09T00:20:19;99497.56;;;2.73;58.00
41040;BME280;48586;50.122;18.972;2023-10-09T00:23:40;99487.16;;;2.70;58.00
41040;BME280;48586;50.122;18.972;2023-10-09T00:26:46;99475.63;;;2.71;58.02
41040;BME280;48586;50.122;18.972;2023-10-09T00:29:57;99466.84;;;2.71;57.95
41040;BME280;48586;50.122;18.972;2023-10-09T00:33:02;99467.41;;;2.77;57.75
41040;BME280;48586;50.122;18.972;2023-10-09T00:36:10;99452.06;;;2.84;57.66
41040;BME280;48586;50.122;18.972;2023-10-09T00:39:20;99434.09;;;2.91;57.39
41040;BME280;48586;50.122;18.972;2023-10-09T00:42:40;99415.88;;;3.02;57.24
41040;BME280;48586;50.122;18.972;2023-10-09T00:45:48;99396.13;;;3.09;57.04
41040;BME280;48586;50.122;18.972;2023-10-09T00:48:57;99384.16;;;3.18;56.77
41040;BME280;48586;50.122;18.972;2023-10-09T00:52:05;99377.72;;;3.23;56.35
41040;BME280;48586;50.122;18.972;2023-10-09T00:55:20;99374.81;;;3.28;56.45
41040;BME280;48586;50.122;18.972;2023-10-09T00:58:38;99372.41;;;3.23;56.34
41040;BME280;48586;50.122;18.972;2023-10-09T01:01:48;99370.78;;;3.21;56.08
41040;BME280;48586;50.122;18.972;2023-10-09T01:04:57;99382.63;;;3.13;56.37
41040;BME280;48586;50.122;18.972;2023-10-09T01:08:13;99376.97;;;2.87;56.51
41040;BME280;48586;50.122;18.972;2023-10-09T01:11:27;99393.78;;;2.86;56.25
41040;BME280;48586;50.122;18.972;2023-10-09T01:14:35;99398.34;;;2.66;56.34
41040;BME280;48586;50.122;18.972;2023-10-09T01:17:45;99399.25;;;2.48;56.23
41040;BME280;48586;50.122;18.972;2023-10-09T01:20:51;99403.28;;;2.38;56.83
41040;BME280;48586;50.122;18.972;2023-10-09T01:23:59;99395.72;;;2.30;58.18
41040;BME280;48586;50.122;18.972;2023-10-09T01:27:10;99401.44;;;2.21;59.81
41040;BME280;48586;50.122;18.972;2023-10-09T01:30:18;99399.97;;;2.15;60.08
41040;BME280;48586;50.122;18.972;2023-10-09T01:33:26;99403.41;;;2.17;60.87
41040;BME280;48586;50.122;18.972;2023-10-09T01:36:38;99399.91;;;2.17;59.71
41040;BME280;48586;50.122;18.972;2023-10-09T01:39:48;99395.75;;;2.11;59.80
41040;BME280;48586;50.122;18.972;2023-10-09T01:42:54;99391.59;;;2.24;59.97
41040;BME280;48586;50.122;18.972;2023-10-09T01:46:01;99383.44;;;2.29;59.17
41040;BME280;48586;50.122;18.972;2023-10-09T01:49:13;99378.56;;;2.39;59.06
41040;BME280;48586;50.122;18.972;2023-10-09T01:52:25;99379.16;;;2.44;58.63
41040;BME280;48586;50.122;18.972;2023-10-09T01:55:35;99392.00;;;2.51;58.27
41040;BME280;48586;50.122;18.972;2023-10-09T01:58:43;99397.53;;;2.47;58.41
41040;BME280;48586;50.122;18.972;2023-10-09T02:01:50;99390.47;;;2.47;59.05
41040;BME280;48586;50.122;18.972;2023-10-09T02:05:04;99384.31;;;2.64;58.84
41040;BME280;48586;50.122;18.972;2023-10-09T02:08:25;99368.53;;;2.80;58.33
41040;BME280;48586;50.122;18.972;2023-10-09T02:11:35;99355.91;;;2.85;58.17
41040;BME280;48586;50.122;18.972;2023-10-09T02:14:48;99351.16;;;2.92;57.96
41040;BME280;48586;50.122;18.972;2023-10-09T02:17:58;99332.34;;;2.98;57.92
41040;BME280;48586;50.122;18.972;2023-10-09T02:21:18;99321.78;;;3.13;57.60
41040;BME280;48586;50.122;18.972;2023-10-09T02:24:32;99328.09;;;3.27;57.70
41040;BME280;48586;50.122;18.972;2023-10-09T02:27:54;99323.91;;;3.40;56.68
41040;BME280;48586;50.122;18.972;2023-10-09T02:31:09;99328.16;;;3.43;56.10
41040;BME280;48586;50.122;18.972;2023-10-09T02:34:18;99334.97;;;3.31;56.17
41040;BME280;48586;50.122;18.972;2023-10-09T02:37:29;99336.13;;;3.25;56.80
41040;BME280;48586;50.122;18.972;2023-10-09T02:40:35;99353.63;;;3.28;56.98
41040;BME280;48586;50.122;18.972;2023-10-09T02:44:07;99342.91;;;3.31;56.75
41040;BME280;48586;50.122;18.972;2023-10-09T02:47:16;99327.78;;;3.33;56.67
41040;BME280;48586;50.122;18.972;2023-10-09T02:50:26;99329.44;;;3.35;56.39
41040;BME280;48586;50.122;18.972;2023-10-09T02:53:36;99346.16;;;3.36;56.60
41040;BME280;48586;50.122;18.972;2023-10-09T02:56:41;99341.56;;;3.39;56.96
41040;BME280;48586;50.122;18.972;2023-10-09T02:59:51;99344.59;;;3.32;56.78
41040;BME280;48586;50.122;18.972;2023-10-09T03:02:56;99361.06;;;3.21;57.25
41040;BME280;48586;50.122;18.972;2023-10-09T03:06:02;99337.56;;;3.15;57.47
41040;BME280;48586;50.122;18.972;2023-10-09T03:09:12;99342.34;;;3.08;57.53
41040;BME280;48586;50.122;18.972;2023-10-09T03:12:27;99328.19;;;3.09;58.30
41040;BME280;48586;50.122;18.972;2023-10-09T03:15:38;99339.25;;;3.16;57.51
41040;BME280;48586;50.122;18.972;2023-10-09T03:18:43;99330.38;;;3.17;57.38
41040;BME280;48586;50.122;18.972;2023-10-09T03:21:49;99312.41;;;3.24;57.26
41040;BME280;48586;50.122;18.972;2023-10-09T03:24:53;99304.13;;;3.30;57.25
41040;BME280;48586;50.122;18.972;2023-10-09T03:28:00;99300.22;;;3.37;56.70
41040;BME280;48586;50.122;18.972;2023-10-09T03:31:07;99293.84;;;3.41;56.91
41040;BME280;48586;50.122;18.972;2023-10-09T03:34:13;99293.47;;;3.47;57.08
41040;BME280;48586;50.122;18.972;2023-10-09T03:37:17;99293.91;;;3.39;56.89
41040;BME280;48586;50.122;18.972;2023-10-09T03:40:35;99267.94;;;3.30;57.24
41040;BME280;48586;50.122;18.972;2023-10-09T03:43:40;99260.66;;;3.34;57.35
41040;BME280;48586;50.122;18.972;2023-10-09T03:46:50;99241.53;;;3.29;56.90
41040;BME280;48586;50.122;18.972;2023-10-09T03:49:55;99265.53;;;3.26;57.54
41040;BME280;48586;50.122;18.972;2023-10-09T03:53:05;99266.63;;;3.22;57.77
41040;BME280;48586;50.122;18.972;2023-10-09T03:56:14;99276.63;;;3.32;57.53
41040;BME280;48586;50.122;18.972;2023-10-09T03:59:21;99286.69;;;3.26;57.86
41040;BME280;48586;50.122;18.972;2023-10-09T04:02:32;99273.88;;;3.18;57.60
41040;BME280;48586;50.122;18.972;2023-10-09T04:05:39;99257.94;;;3.20;57.96
41040;BME280;48586;50.122;18.972;2023-10-09T04:08:45;99249.53;;;3.27;57.63
41040;BME280;48586;50.122;18.972;2023-10-09T04:11:54;99221.28;;;3.28;57.78
41040;BME280;48586;50.122;18.972;2023-10-09T04:15:21;99202.53;;;3.32;57.70
41040;BME280;48586;50.122;18.972;2023-10-09T04:18:30;99216.38;;;3.37;57.26
41040;BME280;48586;50.122;18.972;2023-10-09T04:21:35;99231.31;;;3.38;57.31
41040;BME280;48586;50.122;18.972;2023-10-09T04:24:39;99241.97;;;3.37;57.51
41040;BME280;48586;50.122;18.972;2023-10-09T04:27:45;99236.28;;;3.45;57.51
41040;BME280;48586;50.122;18.972;2023-10-09T04:30:48;99230.28;;;3.57;57.30
41040;BME280;48586;50.122;18.972;2023-10-09T04:34:03;99212.25;;;3.63;56.70
41040;BME280;48586;50.122;18.972;2023-10-09T04:37:22;99195.00;;;3.56;56.60
41040;BME280;48586;50.122;18.972;2023-10-09T04:40:38;99197.78;;;3.69;56.84
41040;BME280;48586;50.122;18.972;2023-10-09T04:43:53;99179.84;;;3.74;56.43
41040;BME280;48586;50.122;18.972;2023-10-09T04:47:14;99175.72;;;3.84;56.10
41040;BME280;48586;50.122;18.972;2023-10-09T04:50:23;99168.72;;;3.83;55.98
41040;BME280;48586;50.122;18.972;2023-10-09T04:53:43;99177.22;;;3.88;56.52
41040;BME280;48586;50.122;18.972;2023-10-09T04:56:52;99164.28;;;3.84;56.62
41040;BME280;48586;50.122;18.972;2023-10-09T04:59:57;99165.03;;;3.86;56.49
41040;BME280;48586;50.122;18.972;2023-10-09T05:03:07;99169.09;;;3.91;56.50
41040;BME280;48586;50.122;18.972;2023-10-09T05:06:16;99166.34;;;3.93;56.38
41040;BME280;48586;50.122;18.972;2023-10-09T05:09:44;99159.97;;;3.81;57.33
41040;BME280;48586;50.122;18.972;2023-10-09T05:13:12;99150.81;;;3.73;57.84
41040;BME280;48586;50.122;18.972;2023-10-09T05:16:18;99144.19;;;3.80;58.03
41040;BME280;48586;50.122;18.972;2023-10-09T05:19:28;99154.38;;;3.72;57.96
41040;BME280;48586;50.122;18.972;2023-10-09T05:22:53;99136.97;;;3.67;58.60
41040;BME280;48586;50.122;18.972;2023-10-09T05:26:00;99129.78;;;3.69;58.90
41040;BME280;48586;50.122;18.972;2023-10-09T05:29:26;99123.28;;;3.75;58.61
41040;BME280;48586;50.122;18.972;2023-10-09T05:32:51;99128.38;;;3.78;59.10
41040;BME280;48586;50.122;18.972;2023-10-09T05:36:02;99116.84;;;3.79;58.91
41040;BME280;48586;50.122;18.972;2023-10-09T05:39:36;99097.00;;;3.86;58.35
41040;BME280;48586;50.122;18.972;2023-10-09T05:42:47;99098.03;;;3.84;58.27
41040;BME280;48586;50.122;18.972;2023-10-09T05:46:01;99098.13;;;3.96;59.17
41040;BME280;48586;50.122;18.972;2023-10-09T05:49:18;99093.78;;;4.10;58.53
41040;BME280;48586;50.122;18.972;2023-10-09T05:52:22;99107.22;;;4.21;58.12
41040;BME280;48586;50.122;18.972;2023-10-09T05:56:01;99102.13;;;4.32;57.88
41040;BME280;48586;50.122;18.972;2023-10-09T05:59:20;99095.28;;;4.42;58.30
41040;BME280;48586;50.122;18.972;2023-10-09T06:02:38;99104.09;;;4.57;57.55
41040;BME280;48586;50.122;18.972;2023-10-09T06:05:56;99122.16;;;4.65;56.27
41040;BME280;48586;50.122;18.972;2023-10-09T06:09:09;99125.56;;;4.67;56.88
41040;BME280;48586;50.122;18.972;2023-10-09T06:12:55;99126.03;;;4.73;57.11
41040;BME280;48586;50.122;18.972;2023-10-09T06:16:06;99133.53;;;4.81;56.74
41040;BME280;48586;50.122;18.972;2023-10-09T06:19:34;99137.03;;;4.81;56.23
41040;BME280;48586;50.122;18.972;2023-10-09T06:22:46;99143.72;;;4.87;57.17
41040;BME280;48586;50.122;18.972;2023-10-09T06:26:17;99167.91;;;4.82;57.08
41040;BME280;48586;50.122;18.972;2023-10-09T06:29:33;99171.44;;;4.69;57.31
41040;BME280;48586;50.122;18.972;2023-10-09T06:32:40;99182.03;;;4.54;57.70
41040;BME280;48586;50.122;18.972;2023-10-09T06:35:59;99192.16;;;4.34;59.01
41040;BME280;48586;50.122;18.972;2023-10-09T06:39:10;99194.16;;;4.16;59.87
41040;BME280;48586;50.122;18.972;2023-10-09T06:42:29;99187.78;;;4.04;60.28
41040;BME280;48586;50.122;18.972;2023-10-09T06:45:54;99185.88;;;4.06;61.39
41040;BME280;48586;50.122;18.972;2023-10-09T06:49:23;99175.53;;;4.02;60.31
41040;BME280;48586;50.122;18.972;2023-10-09T06:52:35;99173.09;;;3.98;61.86
41040;BME280;48586;50.122;18.972;2023-10-09T06:55:54;99154.66;;;4.11;61.68
41040;BME280;48586;50.122;18.972;2023-10-09T06:59:06;99144.53;;;4.18;61.24
41040;BME280;48586;50.122;18.972;2023-10-09T07:02:21;99145.00;;;4.24;61.35
41040;BME280;48586;50.122;18.972;2023-10-09T07:05:48;99128.53;;;4.34;61.45
41040;BME280;48586;50.122;18.972;2023-10-09T07:09:08;99142.06;;;4.43;61.17
41040;BME280;48586;50.122;18.972;2023-10-09T07:12:23;99140.47;;;4.55;61.73
41040;BME280;48586;50.122;18.972;2023-10-09T07:15:29;99134.47;;;4.66;60.35
41040;BME280;48586;50.122;18.972;2023-10-09T07:18:58;99137.31;;;4.77;60.42
41040;BME280;48586;50.122;18.972;2023-10-09T07:22:12;99120.38;;;4.79;59.98
41040;BME280;48586;50.122;18.972;2023-10-09T07:25:26;99126.47;;;4.94;59.97
41040;BME280;48586;50.122;18.972;2023-10-09T07:28:57;99118.31;;;4.97;59.90
41040;BME280;48586;50.122;18.972;2023-10-09T07:32:17;99101.16;;;5.03;60.06
41040;BME280;48586;50.122;18.972;2023-10-09T07:35:31;99093.84;;;5.06;60.07
41040;BME280;48586;50.122;18.972;2023-10-09T07:38:49;99087.47;;;5.09;58.58
41040;BME280;48586;50.122;18.972;2023-10-09T07:41:58;99087.47;;;5.09;58.78
41040;BME280;48586;50.122;18.972;2023-10-09T07:45:17;99080.91;;;5.14;58.36
41040;BME280;48586;50.122;18.972;2023-10-09T07:48:36;99091.22;;;5.19;57.96
41040;BME280;48586;50.122;18.972;2023-10-09T07:51:56;99103.06;;;5.28;58.86
41040;BME280;48586;50.122;18.972;2023-10-09T07:55:02;99096.41;;;5.35;59.30
41040;BME280;48586;50.122;18.972;2023-10-09T07:58:24;99092.41;;;5.42;58.22
41040;BME280;48586;50.122;18.972;2023-10-09T08:01:30;99088.25;;;5.51;58.78
41040;BME280;48586;50.122;18.972;2023-10-09T08:04:42;99085.59;;;5.51;58.07
41040;BME280;48586;50.122;18.972;2023-10-09T08:07:59;99084.34;;;5.56;57.82
41040;BME280;48586;50.122;18.972;2023-10-09T08:11:30;99080.34;;;5.63;59.04
41040;BME280;48586;50.122;18.972;2023-10-09T08:14:50;99073.97;;;5.66;58.03
41040;BME280;48586;50.122;18.972;2023-10-09T08:18:01;99052.59;;;5.55;57.38
41040;BME280;48586;50.122;18.972;2023-10-09T08:21:31;99031.97;;;5.58;57.53
41040;BME280;48586;50.122;18.972;2023-10-09T08:25:12;99027.38;;;5.60;58.06
41040;BME280;48586;50.122;18.972;2023-10-09T08:28:34;99006.34;;;5.57;58.19
41040;BME280;48586;50.122;18.972;2023-10-09T08:31:42;99003.19;;;5.65;59.64
41040;BME280;48586;50.122;18.972;2023-10-09T08:34:59;98999.47;;;5.67;57.93
41040;BME280;48586;50.122;18.972;2023-10-09T08:38:08;98961.19;;;5.70;59.19
41040;BME280;48586;50.122;18.972;2023-10-09T08:41:17;98958.22;;;5.87;58.38
41040;BME280;48586;50.122;18.972;2023-10-09T08:44:26;98963.91;;;5.94;57.28
41040;BME280;48586;50.122;18.972;2023-10-09T08:47:34;98948.69;;;6.09;58.89
41040;BME280;48586;50.122;18.972;2023-10-09T08:50:41;98925.03;;;6.29;59.48
41040;BME280;48586;50.122;18.972;2023-10-09T08:53:49;98916.47;;;6.37;56.95
41040;BME280;48586;50.122;18.972;2023-10-09T08:56:57;98913.97;;;6.47;58.27
41040;BME280;48586;50.122;18.972;2023-10-09T09:00:04;98897.47;;;6.54;57.99
41040;BME280;48586;50.122;18.972;2023-10-09T09:03:14;98902.53;;;6.57;57.34
41040;BME280;48586;50.122;18.972;2023-10-09T09:06:20;98891.72;;;6.48;57.26
41040;BME280;48586;50.122;18.972;2023-10-09T09:09:25;98893.34;;;6.50;57.94
41040;BME280;48586;50.122;18.972;2023-10-09T09:12:38;98890.56;;;6.52;56.92
41040;BME280;48586;50.122;18.972;2023-10-09T09:15:47;98894.13;;;6.40;57.46
41040;BME280;48586;50.122;18.972;2023-10-09T09:18:56;98904.00;;;6.38;57.54
41040;BME280;48586;50.122;18.972;2023-10-09T09:22:06;98908.78;;;6.45;57.76
41040;BME280;48586;50.122;18.972;2023-10-09T09:25:21;98898.78;;;6.49;57.73
41040;BME280;48586;50.122;18.972;2023-10-09T09:28:51;98892.22;;;6.42;57.64
41040;BME280;48586;50.122;18.972;2023-10-09T09:31:57;98888.06;;;6.38;57.36
41040;BME280;48586;50.122;18.972;2023-10-09T09:35:17;98877.66;;;6.35;58.44
41040;BME280;48586;50.122;18.972;2023-10-09T09:38:22;98869.44;;;6.38;59.01
41040;BME280;48586;50.122;18.972;2023-10-09T09:41:30;98869.00;;;6.44;59.47
41040;BME280;48586;50.122;18.972;2023-10-09T09:44:39;98886.22;;;6.51;58.09
41040;BME280;48586;50.122;18.972;2023-10-09T09:47:47;98883.88;;;6.46;57.31
41040;BME280;48586;50.122;18.972;2023-10-09T09:50:56;98872.22;;;6.36;58.10
41040;BME280;48586;50.122;18.972;2023-10-09T09:54:07;98878.00;;;6.30;58.85
41040;BME280;48586;50.122;18.972;2023-10-09T09:57:18;98875.78;;;6.24;58.35
41040;BME280;48586;50.122;18.972;2023-10-09T10:00:33;98872.22;;;6.12;58.72
41040;BME280;48586;50.122;18.972;2023-10-09T10:03:51;98872.03;;;6.02;59.02
41040;BME280;48586;50.122;18.972;2023-10-09T10:07:00;98870.91;;;5.94;59.50
41040;BME280;48586;50.122;18.972;2023-10-09T10:10:35;98873.78;;;5.91;59.67
41040;BME280;48586;50.122;18.972;2023-10-09T10:13:55;98883.22;;;5.95;60.22
41040;BME280;48586;50.122;18.972;2023-10-09T10:17:08;98879.63;;;5.96;59.66
41040;BME280;48586;50.122;18.972;2023-10-09T10:20:22;98859.94;;;5.98;60.04
41040;BME280;48586;50.122;18.972;2023-10-09T10:23:33;98859.94;;;5.98;60.11
41040;BME280;48586;50.122;18.972;2023-10-09T10:26:37;98854.41;;;6.01;60.25
41040;BME280;48586;50.122;18.972;2023-10-09T10:29:43;98845.81;;;5.98;60.12
41040;BME280;48586;50.122;18.972;2023-10-09T10:32:57;98845.50;;;5.90;60.33
41040;BME280;48586;50.122;18.972;2023-10-09T10:36:11;98854.38;;;5.78;60.21
41040;BME280;48586;50.122;18.972;2023-10-09T10:39:24;98854.53;;;5.63;60.35
41040;BME280;48586;50.122;18.972;2023-10-09T10:42:47;98853.66;;;5.63;60.13
41040;BME280;48586;50.122;18.972;2023-10-09T10:46:10;98844.75;;;5.64;59.65
41040;BME280;48586;50.122;18.972;2023-10-09T10:49:28;98845.78;;;5.61;60.00
41040;BME280;48586;50.122;18.972;2023-10-09T10:52:38;98836.53;;;5.67;60.28
41040;BME280;48586;50.122;18.972;2023-10-09T10:55:56;98833.16;;;5.65;60.23
41040;BME280;48586;50.122;18.972;2023-10-09T10:58:59;98835.28;;;5.60;60.38
41040;BME280;48586;50.122;18.972;2023-10-09T11:02:18;98820.41;;;5.57;60.03
41040;BME280;48586;50.122;18.972;2023-10-09T11:05:31;98821.16;;;5.59;60.29
41040;BME280;48586;50.122;18.972;2023-10-09T11:08:44;98797.25;;;5.59;60.22
41040;BME280;48586;50.122;18.972;2023-10-09T11:11:55;98805.66;;;5.53;60.09
41040;BME280;48586;50.122;18.972;2023-10-09T11:15:14;98796.19;;;5.49;60.07
41040;BME280;48586;50.122;18.972;2023-10-09T11:18:40;98788.97;;;5.51;60.52
41040;BME280;48586;50.122;18.972;2023-10-09T11:21:55;98778.88;;;5.56;60.69
41040;BME280;48586;50.122;18.972;2023-10-09T11:25:23;98767.06;;;5.60;60.45
41040;BME280;48586;50.122;18.972;2023-10-09T11:28:28;98749.19;;;5.62;60.51
41040;BME280;48586;50.122;18.972;2023-10-09T11:32:00;98740.28;;;5.63;60.89
41040;BME280;48586;50.122;18.972;2023-10-09T11:35:11;98750.69;;;5.66;60.53
41040;BME280;48586;50.122;18.972;2023-10-09T11:38:25;98753.34;;;5.66;60.40
41040;BME280;48586;50.122;18.972;2023-10-09T11:41:30;98749.84;;;5.66;60.42
41040;BME280;48586;50.122;18.972;2023-10-09T11:44:40;98761.19;;;5.68;60.62
41040;BME280;48586;50.122;18.972;2023-10-09T11:47:48;98750.97;;;5.75;59.97
41040;BME280;48586;50.122;18.972;2023-10-09T11:51:00;98753.16;;;5.81;60.59
41040;BME280;48586;50.122;18.972;2023-10-09T11:54:32;98744.22;;;5.82;59.99
41040;BME280;48586;50.122;18.972;2023-10-09T11:57:37;98751.94;;;5.97;59.59
41040;BME280;48586;50.122;18.972;2023-10-09T12:00:42;98744.06;;;5.96;58.71
41040;BME280;48586;50.122;18.972;2023-10-09T12:03:49;98744.28;;;5.93;58.76
41040;BME280;48586;50.122;18.972;2023-10-09T12:06:55;98722.28;;;5.91;59.28
41040;BME280;48586;50.122;18.972;2023-10-09T12:10:10;98707.81;;;5.95;59.95
41040;BME280;48586;50.122;18.972;2023-10-09T12:13:26;98721.97;;;5.95;59.93
41040;BME280;48586;50.122;18.972;2023-10-09T12:16:31;98732.47;;;5.97;59.93
41040;BME280;48586;50.122;18.972;2023-10-09T12:19:38;98751.19;;;5.95;59.60
41040;BME280;48586;50.122;18.972;2023-10-09T12:22:42;98745.16;;;6.05;59.56
41040;BME280;48586;50.122;18.972;2023-10-09T12:25:51;98745.44;;;6.13;59.62
41040;BME280;48586;50.122;18.972;2023-10-09T12:28:57;98741.72;;;6.15;59.90
41040;BME280;48586;50.122;18.972;2023-10-09T12:32:03;98730.72;;;6.09;60.06
41040;BME280;48586;50.122;18.972;2023-10-09T12:35:11;98729.34;;;6.03;60.01
41040;BME280;48586;50.122;18.972;2023-10-09T12:38:19;98734.16;;;5.98;60.25
41040;BME280;48586;50.122;18.972;2023-10-09T12:41:31;98738.28;;;6.02;60.52
41040;BME280;48586;50.122;18.972;2023-10-09T12:44:37;98731.56;;;6.09;59.52
41040;BME280;48586;50.122;18.972;2023-10-09T12:47:43;98732.03;;;6.14;59.34
41040;BME280;48586;50.122;18.972;2023-10-09T12:50:49;98717.78;;;6.15;59.56
41040;BME280;48586;50.122;18.972;2023-10-09T12:53:55;98724.53;;;6.08;59.92
41040;BME280;48586;50.122;18.972;2023-10-09T12:57:05;98741.34;;;6.09;59.44
41040;BME280;48586;50.122;18.972;2023-10-09T13:00:14;98730.47;;;6.12;59.71
41040;BME280;48586;50.122;18.972;2023-10-09T13:03:27;98724.59;;;6.19;60.09
41040;BME280;48586;50.122;18.972;2023-10-09T13:06:33;98713.34;;;6.27;60.15
41040;BME280;48586;50.122;18.972;2023-10-09T13:09:45;98712.28;;;6.29;59.54
41040;BME280;48586;50.122;18.972;2023-10-09T13:13:11;98718.19;;;6.33;59.78
41040;BME280;48586;50.122;18.972;2023-10-09T13:16:18;98704.19;;;6.42;59.93
41040;BME280;48586;50.122;18.972;2023-10-09T13:19:27;98704.09;;;6.44;59.80
41040;BME280;48586;50.122;18.972;2023-10-09T13:22:32;98701.53;;;6.42;60.10
41040;BME280;48586;50.122;18.972;2023-10-09T13:25:38;98698.63;;;6.45;60.09
41040;BME280;48586;50.122;18.972;2023-10-09T13:28:48;98688.50;;;6.50;60.32
41040;BME280;48586;50.122;18.972;2023-10-09T13:31:55;98688.13;;;6.55;59.25
41040;BME280;48586;50.122;18.972;2023-10-09T13:35:06;98682.94;;;6.53;60.04
41040;BME280;48586;50.122;18.972;2023-10-09T13:38:17;98684.63;;;6.54;59.75
41040;BME280;48586;50.122;18.972;2023-10-09T13:41:26;98681.38;;;6.51;59.91
41040;BME280;48586;50.122;18.972;2023-10-09T13:44:34;98684.25;;;6.48;59.67
41040;BME280;48586;50.122;18.972;2023-10-09T13:47:43;98673.13;;;6.43;59.45
41040;BME280;48586;50.122;18.972;2023-10-09T13:50:51;98668.06;;;6.40;59.83
41040;BME280;48586;50.122;18.972;2023-10-09T13:54:09;98668.63;;;6.32;59.91
41040;BME280;48586;50.122;18.972;2023-10-09T13:57:21;98678.91;;;6.37;60.22
41040;BME280;48586;50.122;18.972;2023-10-09T14:00:35;98678.19;;;6.35;60.74
41040;BME280;48586;50.122;18.972;2023-10-09T14:03:43;98685.31;;;6.34;60.28
41040;BME280;48586;50.122;18.972;2023-10-09T14:06:52;98683.50;;;6.35;60.22
41040;BME280;48586;50.122;18.972;2023-10-09T14:09:58;98679.66;;;6.39;60.32
41040;BME280;48586;50.122;18.972;2023-10-09T14:13:19;98694.88;;;6.48;60.57
41040;BME280;48586;50.122;18.972;2023-10-09T14:16:30;98689.94;;;6.54;59.56
41040;BME280;48586;50.122;18.972;2023-10-09T14:19:38;98675.69;;;6.55;59.52
41040;BME280;48586;50.122;18.972;2023-10-09T14:22:48;98685.13;;;6.59;59.83
41040;BME280;48586;50.122;18.972;2023-10-09T14:25:54;98646.91;;;6.61;59.19
41040;BME280;48586;50.122;18.972;2023-10-09T14:29:02;98647.25;;;6.56;58.79
41040;BME280;48586;50.122;18.972;2023-10-09T14:32:11;98647.25;;;6.45;59.69
41040;BME280;48586;50.122;18.972;2023-10-09T14:35:17;98645.56;;;6.44;59.88
41040;BME280;48586;50.122;18.972;2023-10-09T14:38:23;98643.50;;;6.36;60.01
41040;BME280;48586;50.122;18.972;2023-10-09T14:41:33;98649.66;;;6.37;60.42
41040;BME280;48586;50.122;18.972;2023-10-09T14:44:38;98653.78;;;6.41;60.67
41040;BME280;48586;50.122;18.972;2023-10-09T14:47:49;98667.44;;;6.47;60.65
41040;BME280;48586;50.122;18.972;2023-10-09T14:50:56;98668.78;;;6.53;60.49
41040;BME280;48586;50.122;18.972;2023-10-09T14:54:06;98678.00;;;6.49;60.43
41040;BME280;48586;50.122;18.972;2023-10-09T14:57:17;98673.75;;;6.57;60.45
41040;BME280;48586;50.122;18.972;2023-10-09T15:00:23;98679.44;;;6.64;60.13
41040;BME280;48586;50.122;18.972;2023-10-09T15:03:31;98681.97;;;6.66;60.18
41040;BME280;48586;50.122;18.972;2023-10-09T15:06:39;98697.59;;;6.70;60.21
41040;BME280;48586;50.122;18.972;2023-10-09T15:09:45;98699.16;;;6.73;59.78
41040;BME280;48586;50.122;18.972;2023-10-09T15:12:52;98697.81;;;6.67;59.65
41040;BME280;48586;50.122;18.972;2023-10-09T15:15:59;98694.19;;;6.68;60.09
41040;BME280;48586;50.122;18.972;2023-10-09T15:19:09;98696.63;;;6.71;59.85
41040;BME280;48586;50.122;18.972;2023-10-09T15:22:15;98692.75;;;6.64;60.41
41040;BME280;48586;50.122;18.972;2023-10-09T15:25:23;98706.75;;;6.66;60.49
41040;BME280;48586;50.122;18.972;2023-10-09T15:28:29;98698.53;;;6.69;60.28
41040;BME280;48586;50.122;18.972;2023-10-09T15:31:35;98709.81;;;6.73;60.24
41040;BME280;48586;50.122;18.972;2023-10-09T15:34:45;98714.28;;;6.72;60.09
41040;BME280;48586;50.122;18.972;2023-10-09T15:37:52;98714.28;;;6.72;59.94
41040;BME280;48586;50.122;18.972;2023-10-09T15:40:59;98712.81;;;6.68;60.21
41040;BME280;48586;50.122;18.972;2023-10-09T15:44:07;98716.56;;;6.66;60.50
41040;BME280;48586;50.122;18.972;2023-10-09T15:47:15;98728.06;;;6.66;60.68
41040;BME280;48586;50.122;18.972;2023-10-09T15:50:26;98728.44;;;6.62;60.73
41040;BME280;48586;50.122;18.972;2023-10-09T15:53:37;98727.78;;;6.58;61.24
41040;BME280;48586;50.122;18.972;2023-10-09T15:56:42;98722.97;;;6.52;61.19
41040;BME280;48586;50.122;18.972;2023-10-09T15:59:48;98726.34;;;6.54;61.16
41040;BME280;48586;50.122;18.972;2023-10-09T16:02:54;98732.91;;;6.61;61.41
41040;BME280;48586;50.122;18.972;2023-10-09T16:06:06;98725.28;;;6.68;61.57
41040;BME280;48586;50.122;18.972;2023-10-09T16:09:13;98717.78;;;6.73;61.64
41040;BME280;48586;50.122;18.972;2023-10-09T16:12:23;98713.69;;;6.80;61.08
41040;BME280;48586;50.122;18.972;2023-10-09T16:15:32;98712.63;;;6.82;61.09
41040;BME280;48586;50.122;18.972;2023-10-09T16:18:38;98708.28;;;6.81;60.75
41040;BME280;48586;50.122;18.972;2023-10-09T16:21:47;98695.81;;;6.82;60.58
41040;BME280;48586;50.122;18.972;2023-10-09T16:24:55;98698.59;;;6.80;60.70
41040;BME280;48586;50.122;18.972;2023-10-09T16:28:10;98721.78;;;6.78;60.81
41040;BME280;48586;50.122;18.972;2023-10-09T16:31:17;98714.63;;;6.68;61.02
41040;BME280;48586;50.122;18.972;2023-10-09T16:34:25;98727.22;;;6.66;61.29
41040;BME280;48586;50.122;18.972;2023-10-09T16:37:34;98730.38;;;6.59;61.43
41040;BME280;48586;50.122;18.972;2023-10-09T16:40:40;98723.81;;;6.52;61.81
41040;BME280;48586;50.122;18.972;2023-10-09T16:43:49;98739.16;;;6.49;62.10
41040;BME280;48586;50.122;18.972;2023-10-09T16:46:54;98737.22;;;6.40;62.48
41040;BME280;48586;50.122;18.972;2023-10-09T16:50:00;98736.97;;;6.43;62.52
41040;BME280;48586;50.122;18.972;2023-10-09T16:53:13;98752.56;;;6.47;62.28
41040;BME280;48586;50.122;18.972;2023-10-09T16:56:19;98763.44;;;6.44;62.53